createdAt,value
2023-04-18T00:02:18.741Z,14.52
2023-04-18T00:04:45.746Z,15.50
2023-04-18T00:07:14.616Z,13.23
2023-04-18T00:09:44.714Z,11.82
2023-04-18T00:12:11.451Z,14.15
2023-04-18T00:14:38.133Z,17.30
2023-04-18T00:17:06.004Z,14.55
2023-04-18T00:19:32.618Z,13.18
2023-04-18T00:21:59.103Z,13.25
2023-04-18T00:24:25.673Z,12.15
2023-04-18T00:26:52.135Z,15.95
2023-04-18T00:29:18.693Z,12.90
2023-04-18T00:31:46.129Z,14.82
2023-04-18T00:34:12.858Z,14.50
2023-04-18T00:36:39.586Z,11.95
2023-04-18T00:39:06.120Z,16.02
2023-04-18T00:41:32.590Z,11.80
2023-04-18T00:43:59.126Z,14.43
2023-04-18T00:46:25.661Z,12.02
2023-04-18T00:48:52.310Z,12.77
2023-04-18T00:51:19.417Z,12.95
2023-04-18T00:53:46.005Z,14.93
2023-04-18T00:56:12.606Z,10.48
2023-04-18T00:58:39.234Z,10.73
2023-04-18T01:01:05.940Z,11.95
2023-04-18T01:03:32.539Z,12.82
2023-04-18T01:05:59.294Z,11.23
2023-04-18T01:08:25.800Z,13.90
2023-04-18T01:10:52.316Z,11.95
2023-04-18T01:13:20.639Z,14.43
2023-04-18T01:15:49.141Z,11.05
2023-04-18T01:18:16.520Z,11.52
2023-04-18T01:20:46.068Z,11.75
2023-04-18T01:23:13.099Z,11.00
2023-04-18T01:25:39.691Z,13.68
2023-04-18T01:28:06.693Z,12.52
2023-04-18T01:30:34.029Z,10.70
2023-04-18T01:33:01.623Z,11.98
2023-04-18T01:35:28.594Z,11.55
2023-04-18T01:37:55.156Z,11.20
2023-04-18T01:40:21.967Z,12.70
2023-04-18T01:42:48.593Z,11.00
2023-04-18T01:45:16.216Z,14.38
2023-04-18T01:47:43.708Z,9.98
2023-04-18T01:50:10.514Z,11.07
2023-04-18T01:52:37.002Z,10.25
2023-04-18T01:55:03.682Z,11.32
2023-04-18T01:57:30.809Z,11.10
2023-04-18T01:59:57.410Z,11.13
2023-04-18T02:02:24.003Z,9.60
2023-04-18T02:04:50.574Z,10.60
2023-04-18T02:07:17.079Z,11.20
2023-04-18T02:09:43.627Z,12.88
2023-04-18T02:12:10.179Z,12.23
2023-04-18T02:14:36.844Z,15.60
2023-04-18T02:17:03.341Z,11.18
2023-04-18T02:19:30.465Z,13.60
2023-04-18T02:21:57.037Z,13.15
2023-04-18T02:24:23.602Z,12.35
2023-04-18T02:26:50.664Z,12.05
2023-04-18T02:29:17.162Z,12.70
2023-04-18T02:31:43.686Z,14.02
2023-04-18T02:34:10.225Z,12.93
2023-04-18T02:36:36.752Z,12.68
2023-04-18T02:39:03.377Z,12.27
2023-04-18T02:41:29.876Z,14.00
2023-04-18T02:43:56.389Z,10.73
2023-04-18T02:46:23.025Z,14.95
2023-04-18T02:48:49.613Z,11.25
2023-04-18T02:51:16.384Z,15.77
2023-04-18T02:53:42.908Z,14.73
2023-04-18T02:56:09.427Z,16.70
2023-04-18T02:58:35.926Z,11.85
2023-04-18T03:01:02.546Z,12.38
2023-04-18T03:03:29.113Z,12.73
2023-04-18T03:05:55.603Z,12.70
2023-04-18T03:08:22.085Z,15.13
2023-04-18T03:10:48.589Z,15.10
2023-04-18T03:13:16.232Z,15.27
2023-04-18T03:15:42.849Z,16.17
2023-04-18T03:18:09.416Z,14.75
2023-04-18T03:20:35.926Z,13.60
2023-04-18T03:23:02.374Z,14.95
2023-04-18T03:25:29.141Z,17.73
2023-04-18T03:27:55.748Z,16.67
2023-04-18T03:30:22.548Z,13.77
2023-04-18T03:32:49.262Z,15.43
2023-04-18T03:35:15.912Z,18.02
2023-04-18T03:37:42.467Z,15.05
2023-04-18T03:40:09.482Z,15.32
2023-04-18T03:42:36.045Z,15.27
2023-04-18T03:45:02.878Z,16.60
2023-04-18T03:47:31.754Z,18.25
2023-04-18T03:49:58.227Z,16.17
2023-04-18T03:52:24.704Z,16.55
2023-04-18T03:54:51.212Z,17.20
2023-04-18T03:57:17.687Z,14.43
2023-04-18T03:59:46.093Z,16.55
2023-04-18T04:02:13.969Z,16.55
2023-04-18T04:04:40.639Z,15.75
2023-04-18T04:07:07.257Z,16.98
2023-04-18T04:09:33.754Z,16.92
2023-04-18T04:12:00.265Z,15.23
2023-04-18T04:14:26.793Z,16.88
2023-04-18T04:16:53.405Z,16.88
2023-04-18T04:19:19.945Z,17.67
2023-04-18T04:21:46.525Z,15.45
2023-04-18T04:24:13.256Z,17.58
2023-04-18T04:26:40.102Z,16.58
2023-04-18T04:29:06.584Z,15.02
2023-04-18T04:31:33.090Z,15.27
2023-04-18T04:33:59.651Z,20.33
2023-04-18T04:36:26.223Z,21.17
2023-04-18T04:38:52.831Z,18.92
2023-04-18T04:41:19.444Z,22.02
2023-04-18T04:43:45.975Z,15.55
2023-04-18T04:46:12.646Z,20.00
2023-04-18T04:48:39.353Z,16.20
2023-04-18T04:51:05.892Z,22.58
2023-04-18T04:53:32.461Z,19.55
2023-04-18T04:55:59.126Z,22.27
2023-04-18T04:58:25.826Z,24.20
2023-04-18T05:00:52.466Z,19.52
2023-04-18T05:03:19.525Z,17.15
2023-04-18T05:05:46.351Z,18.52
2023-04-18T05:08:12.900Z,16.27
2023-04-18T05:10:39.410Z,17.63
2023-04-18T05:13:05.975Z,20.27
2023-04-18T05:15:32.469Z,17.67
2023-04-18T05:17:59.032Z,20.33
2023-04-18T05:20:25.643Z,21.80
2023-04-18T05:22:52.165Z,20.30
2023-04-18T05:25:19.511Z,17.48
2023-04-18T05:27:46.163Z,18.40
2023-04-18T05:30:12.772Z,20.10
2023-04-18T05:32:39.351Z,17.27
2023-04-18T05:35:06.962Z,16.60
2023-04-18T05:37:33.937Z,18.67
2023-04-18T05:40:01.136Z,20.25
2023-04-18T05:42:27.780Z,19.17
2023-04-18T05:44:54.255Z,20.63
2023-04-18T05:47:20.799Z,21.40
2023-04-18T05:49:47.348Z,19.13
2023-04-18T05:52:13.822Z,19.45
2023-04-18T05:54:40.350Z,19.90
2023-04-18T05:57:06.881Z,19.85
2023-04-18T05:59:33.364Z,17.38
2023-04-18T06:02:00.009Z,19.83
2023-04-18T06:04:26.651Z,21.23
2023-04-18T06:06:53.269Z,21.40
2023-04-18T06:09:19.732Z,20.00
2023-04-18T06:11:46.295Z,18.63
2023-04-18T06:14:13.082Z,19.45
2023-04-18T06:16:40.022Z,16.48
2023-04-18T06:19:06.537Z,22.35
2023-04-18T06:21:33.018Z,20.33
2023-04-18T06:23:59.514Z,18.30
2023-04-18T06:26:25.991Z,21.40
2023-04-18T06:28:52.514Z,19.20
2023-04-18T06:31:19.089Z,18.73
2023-04-18T06:33:45.619Z,19.98
2023-04-18T06:36:12.129Z,17.45
2023-04-18T06:38:38.667Z,18.88
2023-04-18T06:41:05.146Z,19.52
2023-04-18T06:43:31.651Z,17.35
2023-04-18T06:45:58.975Z,16.80
2023-04-18T06:48:25.557Z,17.55
2023-04-18T06:50:52.079Z,15.90
2023-04-18T06:53:18.667Z,16.98
2023-04-18T06:55:45.156Z,18.15
2023-04-18T06:58:12.318Z,15.93
2023-04-18T07:00:39.141Z,15.68
2023-04-18T07:03:06.585Z,16.20
2023-04-18T07:05:33.650Z,17.52
2023-04-18T07:40:24.664Z,11.63
2023-04-18T07:42:51.181Z,15.43
2023-04-18T07:45:17.684Z,13.75
2023-04-18T07:47:44.285Z,18.77
2023-04-18T07:50:11.264Z,15.07
2023-04-18T07:52:39.332Z,14.80
2023-04-18T07:55:07.834Z,14.38
2023-04-18T07:57:34.395Z,12.68
2023-04-18T08:00:00.939Z,14.38
2023-04-18T08:02:27.590Z,14.35
2023-04-18T08:04:54.434Z,16.00
2023-04-18T08:07:21.143Z,12.52
2023-04-18T08:09:47.813Z,12.32
2023-04-18T08:12:14.282Z,13.93
2023-04-18T08:14:40.784Z,11.48
2023-04-18T08:17:07.453Z,12.50
2023-04-18T08:19:33.970Z,9.85
2023-04-18T08:22:10.514Z,11.13
2023-04-18T08:24:41.673Z,12.02
2023-04-18T08:27:12.995Z,12.60
2023-04-18T08:29:39.495Z,12.27
2023-04-18T08:35:48.372Z,11.45
2023-04-18T08:38:14.955Z,11.15
2023-04-18T09:06:22.650Z,9.63
2023-04-18T09:08:56.534Z,9.40
2023-04-18T09:11:28.031Z,9.02
2023-04-18T09:13:56.000Z,9.70
2023-04-18T09:16:23.359Z,8.38
2023-04-18T09:19:12.382Z,10.25
2023-04-18T09:41:30.605Z,8.95
2023-04-18T09:44:13.931Z,11.50
2023-04-18T09:46:42.240Z,7.90
2023-04-18T09:49:11.117Z,9.77
2023-04-18T09:51:39.942Z,8.07
2023-04-18T09:54:07.409Z,9.90
2023-04-18T09:56:35.714Z,11.70
2023-04-18T09:59:08.484Z,9.70
2023-04-18T10:01:35.837Z,10.35
2023-04-18T10:04:03.916Z,10.00
2023-04-18T10:06:33.670Z,8.68
2023-04-18T10:09:03.110Z,10.82
2023-04-18T10:11:32.763Z,11.65
2023-04-18T10:14:04.498Z,9.63
2023-04-18T10:16:32.546Z,9.05
2023-04-18T10:19:20.150Z,11.70
2023-04-18T10:21:53.992Z,8.73
2023-04-18T10:24:45.447Z,9.80
2023-04-18T10:27:12.077Z,11.18
2023-04-18T10:29:52.099Z,11.57
2023-04-18T10:32:21.752Z,10.75
2023-04-18T10:34:49.652Z,7.78
2023-04-18T10:37:16.245Z,10.57
2023-04-18T10:40:00.199Z,11.45
2023-04-18T10:42:57.722Z,11.20
2023-04-18T10:45:25.642Z,10.45
2023-04-18T10:48:27.599Z,9.43
2023-04-18T10:51:16.350Z,10.77
2023-04-18T10:53:53.768Z,11.25
2023-04-18T10:56:20.542Z,10.07
2023-04-18T10:58:52.296Z,11.02
2023-04-18T11:01:28.524Z,10.48
2023-04-18T11:03:57.113Z,8.63
2023-04-18T11:06:24.164Z,9.57
2023-04-18T11:08:51.066Z,8.85
2023-04-18T11:11:17.534Z,9.43
2023-04-18T11:13:59.003Z,8.75
2023-04-18T11:16:30.690Z,11.15
2023-04-18T11:18:57.599Z,8.88
2023-04-18T11:21:30.306Z,10.07
2023-04-18T11:23:58.026Z,11.05
2023-04-18T11:26:25.874Z,10.18
2023-04-18T11:28:56.584Z,9.43
2023-04-18T11:31:23.766Z,9.00
2023-04-18T11:33:51.579Z,10.98
2023-04-18T11:36:18.281Z,10.82
2023-04-18T11:38:44.965Z,11.77
2023-04-18T11:41:15.720Z,11.15
2023-04-18T11:43:43.593Z,11.35
2023-04-18T11:46:10.218Z,11.65
2023-04-18T11:48:38.046Z,10.90
2023-04-18T11:51:06.388Z,11.75
2023-04-18T11:53:36.913Z,14.07
2023-04-18T11:56:04.785Z,11.85
2023-04-18T11:58:35.151Z,10.90
2023-04-18T12:01:20.233Z,12.35
2023-04-18T12:04:07.407Z,11.65
2023-04-18T12:06:46.975Z,13.00
2023-04-18T12:09:14.551Z,10.82
2023-04-18T12:11:41.607Z,10.98
2023-04-18T12:14:22.013Z,11.93
2023-04-18T12:16:49.632Z,12.13
2023-04-18T12:19:16.492Z,13.13
2023-04-18T12:22:15.387Z,13.00
2023-04-18T12:24:42.013Z,13.57
2023-04-18T12:27:08.599Z,13.05
2023-04-18T12:29:35.174Z,12.00
2023-04-18T12:32:01.772Z,15.00
2023-04-18T12:34:28.321Z,13.32
2023-04-18T12:36:54.867Z,13.10
2023-04-18T12:39:21.414Z,13.98
2023-04-18T12:41:49.636Z,14.35
2023-04-18T12:44:16.501Z,13.15
2023-04-18T12:46:43.089Z,13.55
2023-04-18T12:49:09.651Z,13.95
2023-04-18T12:51:36.150Z,16.73
2023-04-18T12:54:02.702Z,14.63
2023-04-18T12:56:29.200Z,13.13
2023-04-18T12:58:55.757Z,15.60
2023-04-18T13:01:22.305Z,14.82
2023-04-18T13:03:56.756Z,14.73
2023-04-18T13:06:30.844Z,14.50
2023-04-18T13:08:57.350Z,14.68
2023-04-18T13:11:24.072Z,14.68
2023-04-18T13:13:50.581Z,16.25
2023-04-18T13:16:17.089Z,16.60
2023-04-18T13:18:43.584Z,14.00
2023-04-18T13:21:10.167Z,13.13
2023-04-18T13:23:36.772Z,14.80
2023-04-18T13:26:03.520Z,12.93
2023-04-18T13:28:29.999Z,12.98
2023-04-18T13:30:56.462Z,12.25
2023-04-18T13:33:22.967Z,15.85
2023-04-18T13:35:49.458Z,13.60
2023-04-18T13:38:15.956Z,12.95
2023-04-18T13:40:42.458Z,13.25
2023-04-18T13:43:08.960Z,14.50
2023-04-18T13:45:35.479Z,14.98
2023-04-18T13:48:02.065Z,11.18
2023-04-18T13:50:28.618Z,12.05
2023-04-18T13:52:55.114Z,13.68
2023-04-18T13:55:21.662Z,13.73
2023-04-18T13:57:48.185Z,13.25
2023-04-18T14:00:15.240Z,18.13
2023-04-18T14:02:41.886Z,13.63
2023-04-18T14:05:09.251Z,12.52
2023-04-18T14:07:35.888Z,12.55
2023-04-18T14:10:02.357Z,14.55
2023-04-18T14:12:28.838Z,14.65
2023-04-18T14:14:55.323Z,12.90
2023-04-18T14:17:21.840Z,12.80
2023-04-18T14:19:48.409Z,13.57
2023-04-18T14:22:14.963Z,14.82
2023-04-18T14:24:41.440Z,16.83
2023-04-18T14:27:08.157Z,17.17
2023-04-18T14:29:34.637Z,14.35
2023-04-18T14:32:01.098Z,16.13
2023-04-18T14:34:27.577Z,18.63
2023-04-18T14:36:54.073Z,13.52
2023-04-18T14:39:20.543Z,15.52
2023-04-18T14:41:47.101Z,15.77
2023-04-18T14:44:13.633Z,15.15
2023-04-18T14:46:40.235Z,13.23
2023-04-18T14:49:06.853Z,13.45
2023-04-18T14:51:33.365Z,14.55
2023-04-18T14:53:59.894Z,12.15
2023-04-18T14:56:26.489Z,17.95
2023-04-18T14:58:53.040Z,16.83
2023-04-18T15:01:19.611Z,16.55
2023-04-18T15:03:46.397Z,16.05
2023-04-18T15:06:13.114Z,14.90
2023-04-18T15:08:39.661Z,12.70
2023-04-18T15:11:07.307Z,15.52
2023-04-18T15:13:34.056Z,14.43
2023-04-18T15:16:00.609Z,17.08
2023-04-18T15:18:27.216Z,16.70
2023-04-18T15:20:53.680Z,15.65
2023-04-18T15:23:20.353Z,15.75
2023-04-18T15:25:46.930Z,19.98
2023-04-18T15:28:13.446Z,15.38
2023-04-18T15:30:40.145Z,18.08
2023-04-18T15:33:06.753Z,16.35
2023-04-18T15:35:33.337Z,16.75
2023-04-18T15:37:59.869Z,14.45
2023-04-18T15:40:26.445Z,16.48
2023-04-18T15:42:52.927Z,14.20
2023-04-18T15:45:19.896Z,14.82
2023-04-18T15:47:46.535Z,15.20
2023-04-18T15:50:13.049Z,16.00
2023-04-18T15:52:39.580Z,15.40
2023-04-18T15:55:06.667Z,15.23
2023-04-18T15:57:33.277Z,16.90
2023-04-18T15:59:59.835Z,20.05
2023-04-18T16:02:26.531Z,14.82
2023-04-18T16:04:53.124Z,12.82
2023-04-18T16:07:19.614Z,15.15
2023-04-18T16:09:46.111Z,14.43
2023-04-18T16:12:12.606Z,15.57
2023-04-18T16:14:39.172Z,14.98
2023-04-18T16:17:05.679Z,12.57
2023-04-18T16:19:33.381Z,16.17
2023-04-18T16:22:01.621Z,15.48
2023-04-18T16:24:28.151Z,14.68
2023-04-18T16:26:54.668Z,15.20
2023-04-18T16:29:21.157Z,13.43
2023-04-18T16:31:48.120Z,13.02
2023-04-18T16:34:14.926Z,13.98
2023-04-18T16:36:41.665Z,14.63
2023-04-18T16:39:08.226Z,16.48
2023-04-18T16:41:34.755Z,13.93
2023-04-18T16:44:01.276Z,19.77
2023-04-18T16:46:27.884Z,13.73
2023-04-18T16:48:54.422Z,17.35
2023-04-18T16:51:21.021Z,12.38
2023-04-18T16:53:47.551Z,12.18
2023-04-18T16:56:14.292Z,14.23
2023-04-18T16:58:40.952Z,14.35
2023-04-18T17:01:07.456Z,12.00
2023-04-18T17:03:34.459Z,14.60
2023-04-18T17:06:01.048Z,14.20
2023-04-18T17:08:27.708Z,14.13
2023-04-18T17:10:54.944Z,14.30
2023-04-18T17:13:22.136Z,12.65
2023-04-18T17:15:48.684Z,18.08
2023-04-18T17:18:15.184Z,14.98
2023-04-18T17:20:41.700Z,14.98
2023-04-18T17:23:08.244Z,12.02
2023-04-18T17:25:34.798Z,15.07
2023-04-18T17:28:01.355Z,12.38
2023-04-18T17:30:28.665Z,12.82
2023-04-18T17:32:55.204Z,11.60
2023-04-18T17:35:21.847Z,12.80
2023-04-18T17:37:49.326Z,12.95
2023-04-18T17:40:15.860Z,14.88
2023-04-18T17:42:42.446Z,14.07
2023-04-18T17:45:09.610Z,16.38
2023-04-18T17:47:36.393Z,18.35
2023-04-18T17:50:06.836Z,17.90
2023-04-18T17:52:33.357Z,13.45
2023-04-18T17:55:00.439Z,17.75
2023-04-18T17:57:27.333Z,17.40
2023-04-18T17:59:53.942Z,15.50
2023-04-18T18:02:20.511Z,12.98
2023-04-18T18:04:47.058Z,15.32
2023-04-18T18:07:13.613Z,17.48
2023-04-18T18:09:40.186Z,17.70
2023-04-18T18:12:07.084Z,16.73
2023-04-18T18:14:33.633Z,15.43
2023-04-18T18:17:00.211Z,15.70
2023-04-18T18:19:26.790Z,15.85
2023-04-18T18:21:53.317Z,16.17
2023-04-18T18:24:19.839Z,17.77
2023-04-18T18:26:46.349Z,17.85
2023-04-18T18:29:13.210Z,18.67
2023-04-18T18:31:41.082Z,20.98
2023-04-18T18:34:07.733Z,22.58
2023-04-18T18:36:34.360Z,20.58
2023-04-18T18:39:00.966Z,18.30
2023-04-18T18:41:27.509Z,17.38
2023-04-18T18:43:54.136Z,19.60
2023-04-18T18:46:20.761Z,18.30
2023-04-18T18:48:47.286Z,19.15
2023-04-18T18:51:16.011Z,26.17
2023-04-18T18:53:42.538Z,19.52
2023-04-18T18:56:09.056Z,32.15
2023-04-18T18:58:35.573Z,22.73
2023-04-18T19:01:02.438Z,21.48
2023-04-18T19:03:29.236Z,24.42
2023-04-18T19:05:56.215Z,19.45
2023-04-18T19:08:22.942Z,19.90
2023-04-18T19:10:49.486Z,19.70
2023-04-18T19:13:16.026Z,19.83
2023-04-18T19:15:42.718Z,22.58
2023-04-18T19:18:09.308Z,19.30
2023-04-18T19:20:35.886Z,21.27
2023-04-18T19:23:02.377Z,21.27
2023-04-18T19:25:28.883Z,17.75
2023-04-18T19:27:55.389Z,20.42
2023-04-18T19:30:21.886Z,20.20
2023-04-18T19:32:48.453Z,25.00
2023-04-18T19:35:15.049Z,19.85
2023-04-18T19:37:41.670Z,20.00
2023-04-18T19:40:10.102Z,19.30
2023-04-18T19:42:36.598Z,19.60
2023-04-18T19:45:04.098Z,21.27
2023-04-18T19:47:30.685Z,21.33
2023-04-18T19:49:57.358Z,21.15
2023-04-18T19:52:23.885Z,21.33
2023-04-18T19:54:52.332Z,18.55
2023-04-18T19:57:18.988Z,20.80
2023-04-18T19:59:45.548Z,22.67
2023-04-18T20:02:12.107Z,21.60
2023-04-18T20:04:39.004Z,21.58
2023-04-18T20:07:05.736Z,20.38
2023-04-18T20:09:32.479Z,22.13
2023-04-18T20:11:58.995Z,24.45
2023-04-18T20:14:27.435Z,20.05
2023-04-18T20:16:57.113Z,22.52
2023-04-18T20:19:23.760Z,20.25
2023-04-18T20:21:50.463Z,22.38
2023-04-18T20:24:17.007Z,22.85
2023-04-18T20:26:43.555Z,21.33
2023-04-18T20:29:10.093Z,19.20
2023-04-18T20:31:36.638Z,23.10
2023-04-18T20:34:03.152Z,21.15
2023-04-18T20:36:29.716Z,22.42
2023-04-18T20:38:58.872Z,21.17
2023-04-18T20:41:25.384Z,21.42
2023-04-18T20:43:51.846Z,22.33
2023-04-18T20:46:18.471Z,19.30
2023-04-18T20:48:45.038Z,23.67
2023-04-18T20:51:12.779Z,23.17
2023-04-18T20:53:39.384Z,26.20
2023-04-18T20:56:06.071Z,21.85
2023-04-18T20:58:32.750Z,22.40
2023-04-18T21:00:59.290Z,24.48
2023-04-18T21:03:28.494Z,19.73
2023-04-18T21:05:55.177Z,23.08
2023-04-18T21:08:21.726Z,22.70
2023-04-18T21:10:48.297Z,22.35
2023-04-18T21:13:14.787Z,21.73
2023-04-18T21:15:44.150Z,21.85
2023-04-18T21:18:13.680Z,23.70
2023-04-18T21:36:14.010Z,20.30
2023-04-18T21:38:40.531Z,22.27
2023-04-18T21:41:07.023Z,20.23
2023-04-18T21:43:33.500Z,23.13
2023-04-18T21:45:59.995Z,18.48
2023-04-18T21:48:26.556Z,18.50
2023-04-18T21:50:56.250Z,18.02
2023-04-18T21:53:22.787Z,20.48
2023-04-18T21:55:49.713Z,18.30
2023-04-18T21:58:16.322Z,21.60
2023-04-18T22:00:42.871Z,20.73
2023-04-18T22:03:09.547Z,20.10
2023-04-18T22:05:36.203Z,17.50
2023-04-18T22:08:02.977Z,19.05
2023-04-18T22:10:29.499Z,16.63
2023-04-18T22:12:56.292Z,18.38
2023-04-18T22:15:24.285Z,18.65
2023-04-18T22:17:50.809Z,18.45
2023-04-18T22:20:17.325Z,18.15
2023-04-18T22:22:45.240Z,19.67
2023-04-18T22:25:11.732Z,17.45
2023-04-18T22:27:38.836Z,17.25
2023-04-18T22:30:06.234Z,18.17
2023-04-18T22:32:32.782Z,17.77
2023-04-18T22:34:59.492Z,18.95
2023-04-18T22:37:26.038Z,22.38
2023-04-18T22:39:52.557Z,17.13
2023-04-18T22:42:19.100Z,19.20
2023-04-18T22:44:45.648Z,18.80
2023-04-18T22:47:12.157Z,18.42
2023-04-18T22:49:38.674Z,18.75
2023-04-18T22:52:05.228Z,18.70
2023-04-18T22:54:31.777Z,24.23
2023-04-18T22:56:58.273Z,17.73
2023-04-18T22:59:24.799Z,20.02
2023-04-18T23:01:51.375Z,20.40
2023-04-18T23:04:18.270Z,19.40
2023-04-18T23:06:45.122Z,18.27
2023-04-18T23:09:11.606Z,19.02
2023-04-18T23:11:38.116Z,18.70
2023-04-18T23:14:04.651Z,19.02
2023-04-18T23:16:31.202Z,19.17
2023-04-18T23:18:57.742Z,18.70
2023-04-18T23:21:24.254Z,19.65
2023-04-18T23:23:50.752Z,19.10
2023-04-18T23:26:17.268Z,18.63
2023-04-18T23:28:43.817Z,19.70
2023-04-18T23:31:10.412Z,18.88
2023-04-18T23:33:36.888Z,17.38
2023-04-18T23:36:03.556Z,18.83
2023-04-18T23:38:30.675Z,18.50
2023-04-18T23:40:57.162Z,17.48
2023-04-18T23:43:23.663Z,19.08
2023-04-18T23:45:50.124Z,16.35
2023-04-18T23:48:16.640Z,18.23
2023-04-18T23:50:49.598Z,17.95
2023-04-18T23:53:19.026Z,16.45
2023-04-18T23:55:47.582Z,19.30
